createdAt,value
2022-12-04T00:00:50.519Z,52.87
2022-12-04T00:03:17.480Z,60.80
2022-12-04T00:05:44.092Z,68.87
2022-12-04T00:08:10.827Z,57.57
2022-12-04T00:10:41.880Z,58.07
2022-12-04T00:13:08.606Z,62.38
2022-12-04T00:15:35.172Z,57.83
2022-12-04T00:18:01.630Z,66.03
2022-12-04T00:20:28.161Z,63.90
2022-12-04T00:22:54.736Z,62.97
2022-12-04T00:25:21.228Z,56.63
2022-12-04T00:27:47.792Z,61.33
2022-12-04T00:30:14.730Z,53.60
2022-12-04T00:32:41.387Z,54.17
2022-12-04T00:35:09.896Z,66.83
2022-12-04T00:37:36.497Z,69.93
2022-12-04T00:40:03.290Z,59.63
2022-12-04T00:42:29.810Z,58.13
2022-12-04T00:44:56.334Z,65.63
2022-12-04T00:47:22.950Z,67.15
2022-12-04T00:49:49.965Z,61.67
2022-12-04T00:52:16.817Z,58.50
2022-12-04T00:54:43.294Z,70.97
2022-12-04T00:57:09.828Z,59.30
2022-12-04T00:59:37.117Z,61.43
2022-12-04T01:02:04.083Z,68.17
2022-12-04T01:04:30.652Z,69.40
2022-12-04T01:07:01.550Z,73.97
2022-12-04T01:09:31.970Z,67.10
2022-12-04T01:11:58.641Z,59.70
2022-12-04T01:14:25.399Z,61.57
2022-12-04T01:16:52.024Z,62.93
2022-12-04T01:19:18.639Z,65.10
2022-12-04T01:21:45.235Z,57.43
2022-12-04T01:24:11.714Z,69.77
2022-12-04T01:26:38.363Z,62.50
2022-12-04T01:29:05.412Z,56.50
2022-12-04T01:31:32.224Z,66.87
2022-12-04T01:33:58.812Z,67.77
2022-12-04T01:36:26.434Z,66.83
2022-12-04T01:38:53.362Z,75.53
2022-12-04T01:41:21.432Z,66.53
2022-12-04T01:44:26.711Z,58.97
2022-12-04T01:46:57.422Z,63.80
2022-12-04T01:49:28.105Z,66.37
2022-12-04T01:51:57.819Z,68.90
2022-12-04T01:54:30.243Z,65.53
2022-12-04T01:57:03.248Z,58.17
2022-12-04T01:59:33.029Z,61.93
2022-12-04T02:02:02.683Z,62.17
2022-12-04T02:04:30.672Z,66.97
2022-12-04T02:06:57.193Z,61.40
2022-12-04T02:09:26.833Z,58.70
2022-12-04T02:11:58.046Z,65.37
2022-12-04T02:14:40.151Z,65.57
2022-12-04T02:17:06.717Z,67.20
2022-12-04T02:19:52.115Z,67.17
2022-12-04T02:22:31.421Z,68.00
2022-12-04T02:25:13.252Z,58.10
2022-12-04T02:27:39.921Z,54.60
2022-12-04T02:30:08.444Z,66.57
2022-12-04T02:32:54.189Z,56.90
2022-12-04T02:35:23.570Z,49.00
2022-12-04T02:37:52.686Z,56.30
2022-12-04T02:40:26.531Z,59.73
2022-12-04T02:43:08.397Z,64.33
2022-12-04T02:45:51.507Z,74.83
2022-12-04T02:48:19.605Z,58.03
2022-12-04T02:50:47.521Z,63.93
2022-12-04T02:53:16.961Z,64.23
2022-12-04T02:55:56.114Z,58.90
2022-12-04T02:58:26.584Z,61.40
2022-12-04T03:00:55.619Z,59.10
2022-12-04T03:03:24.573Z,63.80
2022-12-04T03:05:55.469Z,60.07
2022-12-04T03:08:24.652Z,52.87
2022-12-04T03:10:53.115Z,66.77
2022-12-04T03:13:22.997Z,62.63
2022-12-04T03:16:22.398Z,68.20
2022-12-04T03:19:09.153Z,60.67
2022-12-04T03:21:38.360Z,61.03
2022-12-04T03:24:11.379Z,65.53
2022-12-04T03:26:42.646Z,75.70
2022-12-04T03:29:22.877Z,60.93
2022-12-04T03:32:09.757Z,60.03
2022-12-04T03:34:54.745Z,69.03
2022-12-04T03:37:26.218Z,59.70
2022-12-04T03:40:02.323Z,65.20
2022-12-04T03:42:33.626Z,60.50
2022-12-04T03:45:00.095Z,70.73
2022-12-04T03:47:36.902Z,70.03
2022-12-04T03:50:23.662Z,64.55
2022-12-04T03:52:52.482Z,65.40
2022-12-04T03:55:23.458Z,58.23
2022-12-04T03:57:51.183Z,71.87
2022-12-04T04:00:18.570Z,69.83
2022-12-04T04:02:52.063Z,60.47
2022-12-04T04:05:19.249Z,60.93
2022-12-04T04:07:47.714Z,70.77
2022-12-04T04:10:16.147Z,60.73
2022-12-04T04:13:15.500Z,72.50
2022-12-04T04:16:03.308Z,55.03
2022-12-04T04:18:48.795Z,73.67
2022-12-04T04:21:35.302Z,67.83
2022-12-04T04:24:15.611Z,65.73
2022-12-04T04:26:44.968Z,61.07
2022-12-04T04:29:12.229Z,67.40
2022-12-04T04:31:57.626Z,66.57
2022-12-04T04:34:24.169Z,78.27
2022-12-04T04:36:50.633Z,74.47
2022-12-04T04:39:25.679Z,66.20
2022-12-04T04:42:15.224Z,61.97
2022-12-04T04:44:47.518Z,72.53
2022-12-04T04:47:18.624Z,65.27
2022-12-04T04:49:46.227Z,74.23
2022-12-04T04:52:12.806Z,72.63
2022-12-04T04:54:39.686Z,66.40
2022-12-04T04:57:06.216Z,63.97
2022-12-04T04:59:34.463Z,79.97
2022-12-04T05:02:01.091Z,60.70
2022-12-04T05:04:27.574Z,76.80
2022-12-04T05:06:54.347Z,71.97
2022-12-04T05:09:21.024Z,61.03
2022-12-04T05:11:47.658Z,73.63
2022-12-04T05:14:14.341Z,65.60
2022-12-04T05:16:41.844Z,69.53
2022-12-04T05:19:27.288Z,67.07
2022-12-04T05:21:54.041Z,70.83
2022-12-04T05:24:20.699Z,67.40
2022-12-04T05:26:47.292Z,77.67
2022-12-04T05:29:13.819Z,68.30
2022-12-04T05:31:40.364Z,65.20
2022-12-04T05:34:07.059Z,65.73
2022-12-04T05:36:33.595Z,57.50
2022-12-04T05:39:00.302Z,58.23
2022-12-04T05:41:26.817Z,56.23
2022-12-04T05:43:53.433Z,72.33
2022-12-04T05:46:20.014Z,55.00
2022-12-04T05:48:46.521Z,51.83
2022-12-04T05:51:13.241Z,53.07
2022-12-04T05:53:39.854Z,52.87
2022-12-04T05:56:07.588Z,54.23
2022-12-04T05:58:35.208Z,53.83
2022-12-04T06:01:07.271Z,47.37
2022-12-04T06:03:33.805Z,48.40
2022-12-04T06:06:00.397Z,39.87
2022-12-04T06:08:26.951Z,39.75
2022-12-04T06:10:53.516Z,36.67
2022-12-04T06:13:19.991Z,36.03
2022-12-04T06:15:46.551Z,36.67
2022-12-04T06:18:13.056Z,31.43
2022-12-04T06:20:40.123Z,36.63
2022-12-04T06:23:06.738Z,43.63
2022-12-04T06:25:34.394Z,39.47
2022-12-04T06:28:00.893Z,36.40
2022-12-04T06:30:27.423Z,30.73
2022-12-04T06:32:53.920Z,34.03
2022-12-04T06:35:20.424Z,34.33
2022-12-04T06:37:46.876Z,40.40
2022-12-04T06:40:13.391Z,28.20
2022-12-04T06:42:39.969Z,37.57
2022-12-04T06:45:06.916Z,27.97
2022-12-04T06:47:34.258Z,30.93
2022-12-04T06:50:00.926Z,29.60
2022-12-04T06:52:27.670Z,24.77
2022-12-04T06:54:54.433Z,23.83
2022-12-04T06:57:20.953Z,25.47
2022-12-04T06:59:47.471Z,29.40
2022-12-04T07:02:14.159Z,27.70
2022-12-04T07:04:40.750Z,29.07
2022-12-04T07:07:10.402Z,27.90
2022-12-04T07:09:36.881Z,15.57
2022-12-04T07:12:03.501Z,25.53
2022-12-04T07:14:30.001Z,27.27
2022-12-04T07:16:56.589Z,28.70
2022-12-04T07:19:23.188Z,26.10
2022-12-04T07:21:49.885Z,23.90
2022-12-04T07:24:17.266Z,22.87
2022-12-04T07:26:44.178Z,17.02
2022-12-04T07:29:10.952Z,25.80
2022-12-04T07:31:37.877Z,23.73
2022-12-04T07:34:04.593Z,39.00
2022-12-04T07:36:31.134Z,19.48
2022-12-04T07:38:58.140Z,25.40
2022-12-04T07:41:24.850Z,26.13
2022-12-04T07:43:51.498Z,25.67
2022-12-04T07:46:19.711Z,9.20
2022-12-04T07:48:46.365Z,22.13
2022-12-04T07:51:17.268Z,19.47
2022-12-04T07:53:44.295Z,15.43
2022-12-04T07:56:11.733Z,19.50
2022-12-04T07:58:38.359Z,35.97
2022-12-04T08:01:09.140Z,20.17
2022-12-04T08:03:36.019Z,16.37
2022-12-04T08:06:02.962Z,8.33
2022-12-04T08:08:29.922Z,18.70
2022-12-04T08:10:56.569Z,19.73
2022-12-04T08:13:23.682Z,19.80
2022-12-04T08:15:50.634Z,12.10
2022-12-04T08:18:17.461Z,16.43
2022-12-04T08:20:44.424Z,20.93
2022-12-04T08:23:11.405Z,27.33
2022-12-04T08:25:38.924Z,15.23
2022-12-04T08:28:05.658Z,16.10
2022-12-04T08:30:32.989Z,21.03
2022-12-04T08:32:59.565Z,20.60
2022-12-04T08:35:26.148Z,23.77
2022-12-04T08:37:52.783Z,22.63
2022-12-04T08:40:19.374Z,20.90
2022-12-04T08:42:45.966Z,17.00
2022-12-04T08:45:14.061Z,9.60
2022-12-04T08:47:40.703Z,16.83
2022-12-04T08:50:07.381Z,20.50
2022-12-04T08:52:33.968Z,16.40
2022-12-04T08:55:00.561Z,17.35
2022-12-04T08:57:27.185Z,19.30
2022-12-04T08:59:54.111Z,22.85
2022-12-04T09:02:21.012Z,28.43
2022-12-04T09:04:47.751Z,22.17
2022-12-04T09:07:14.356Z,23.43
2022-12-04T09:09:46.570Z,28.73
2022-12-04T09:12:15.024Z,13.98
2022-12-04T09:14:41.687Z,22.63
2022-12-04T09:17:08.299Z,20.85
2022-12-04T09:19:36.164Z,15.40
2022-12-04T09:22:02.904Z,26.48
2022-12-04T09:24:30.221Z,25.15
2022-12-04T09:26:56.951Z,17.52
2022-12-04T09:29:23.568Z,18.02
2022-12-04T09:31:50.281Z,29.83
2022-12-04T09:34:16.864Z,18.53
2022-12-04T09:36:43.441Z,22.90
2022-12-04T09:39:10.394Z,25.85
2022-12-04T09:41:37.136Z,25.98
2022-12-04T09:44:06.228Z,22.10
2022-12-04T09:46:37.458Z,25.25
2022-12-04T09:49:11.900Z,31.07
2022-12-04T09:51:40.498Z,29.55
2022-12-04T09:54:20.930Z,22.17
2022-12-04T09:57:01.527Z,22.90
2022-12-04T09:59:29.925Z,21.83
2022-12-04T10:01:56.565Z,17.55
2022-12-04T10:04:23.275Z,15.85
2022-12-04T10:06:54.901Z,17.90
2022-12-04T10:09:23.976Z,13.82
2022-12-04T10:12:02.359Z,20.50
2022-12-04T10:14:32.095Z,25.45
2022-12-04T10:17:08.047Z,25.20
2022-12-04T10:19:40.749Z,16.98
2022-12-04T10:22:13.809Z,16.17
2022-12-04T10:24:49.254Z,11.20
2022-12-04T10:27:36.108Z,18.57
2022-12-04T10:30:04.383Z,40.33
2022-12-04T10:32:35.307Z,11.93
2022-12-04T10:35:23.433Z,20.15
2022-12-04T10:37:53.693Z,22.25
2022-12-04T10:40:28.145Z,16.63
2022-12-04T10:43:14.583Z,12.48
2022-12-04T10:45:41.150Z,16.77
2022-12-04T10:48:13.399Z,24.00
2022-12-04T10:50:40.730Z,23.58
2022-12-04T10:53:13.461Z,19.75
2022-12-04T10:55:40.622Z,20.38
2022-12-04T10:58:20.637Z,24.85
2022-12-04T11:01:00.808Z,10.95
2022-12-04T11:03:29.075Z,15.95
2022-12-04T11:06:01.454Z,17.30
2022-12-04T11:08:35.232Z,26.00
2022-12-04T11:11:03.228Z,22.02
2022-12-04T11:13:30.118Z,35.55
2022-12-04T11:15:57.613Z,11.13
2022-12-04T11:18:31.753Z,24.95
2022-12-04T11:21:01.702Z,28.05
2022-12-04T11:23:54.564Z,19.25
2022-12-04T11:26:38.362Z,21.38
2022-12-04T11:29:05.872Z,19.23
2022-12-04T11:31:32.974Z,27.35
2022-12-04T11:34:01.348Z,24.65
2022-12-04T11:36:40.544Z,21.40
2022-12-04T11:39:13.145Z,19.73
2022-12-04T11:41:39.665Z,12.95
2022-12-04T11:44:06.790Z,30.67
2022-12-04T11:46:34.356Z,29.33
2022-12-04T11:49:02.881Z,22.77
2022-12-04T11:51:41.953Z,14.65
2022-12-04T11:54:28.926Z,32.88
2022-12-04T11:57:04.085Z,15.88
2022-12-04T11:59:49.069Z,15.33
2022-12-04T12:02:15.832Z,12.00
2022-12-04T12:05:02.801Z,30.67
2022-12-04T12:07:32.627Z,20.30
2022-12-04T12:10:03.415Z,13.97
2022-12-04T12:12:37.014Z,13.23
2022-12-04T12:15:18.813Z,10.85
2022-12-04T12:18:04.030Z,32.08
2022-12-04T12:20:34.855Z,24.75
2022-12-04T12:23:21.148Z,18.02
2022-12-04T12:25:54.134Z,16.23
2022-12-04T12:28:29.709Z,27.17
2022-12-04T12:31:07.760Z,22.83
2022-12-04T12:33:37.971Z,25.98
2022-12-04T12:36:11.799Z,24.48
2022-12-04T12:38:45.769Z,18.77
2022-12-04T12:41:14.199Z,25.42
2022-12-04T12:43:42.687Z,26.77
2022-12-04T12:46:15.336Z,22.92
2022-12-04T12:48:58.508Z,31.58
2022-12-04T12:51:33.292Z,25.73
2022-12-04T12:54:16.896Z,22.40
2022-12-04T12:56:49.792Z,26.43
2022-12-04T12:59:21.989Z,37.30
2022-12-04T13:02:00.328Z,32.42
2022-12-04T13:04:32.276Z,42.07
2022-12-04T13:07:25.544Z,31.73
2022-12-04T13:10:00.595Z,27.48
2022-12-04T13:12:27.878Z,30.20
2022-12-04T13:14:54.535Z,39.77
2022-12-04T13:17:25.965Z,24.02
2022-12-04T13:19:54.724Z,32.40
2022-12-04T13:22:24.660Z,38.65
2022-12-04T13:25:00.647Z,34.33
2022-12-04T13:27:27.186Z,35.92
2022-12-04T13:30:00.050Z,35.78
2022-12-04T13:32:45.271Z,34.73
2022-12-04T13:35:19.099Z,32.47
2022-12-04T13:37:57.874Z,34.37
2022-12-04T13:40:32.677Z,29.80
2022-12-04T13:43:17.698Z,33.43
2022-12-04T13:45:45.684Z,30.87
2022-12-04T13:48:12.274Z,31.83
2022-12-04T13:50:39.641Z,31.93
2022-12-04T13:53:06.980Z,37.17
2022-12-04T13:55:35.770Z,41.97
2022-12-04T13:58:02.415Z,41.90
2022-12-04T14:00:31.572Z,40.40
2022-12-04T14:03:00.030Z,28.93
2022-12-04T14:05:28.324Z,45.57
2022-12-04T14:08:07.618Z,38.60
2022-12-04T14:10:36.922Z,33.70
2022-12-04T14:13:14.754Z,35.27
2022-12-04T14:15:41.674Z,32.40
2022-12-04T14:18:11.401Z,33.23
2022-12-04T14:20:38.365Z,40.33
2022-12-04T14:23:09.589Z,38.33
2022-12-04T14:25:38.343Z,33.90
2022-12-04T14:28:23.820Z,35.93
2022-12-04T14:31:08.996Z,39.03
2022-12-04T14:33:57.905Z,44.57
2022-12-04T14:36:26.366Z,32.03
2022-12-04T14:39:05.390Z,34.03
2022-12-04T14:41:32.258Z,34.53
2022-12-04T14:43:59.989Z,35.87
2022-12-04T14:46:47.051Z,35.93
2022-12-04T14:49:19.823Z,38.60
2022-12-04T14:51:51.355Z,34.22
2022-12-04T14:54:28.260Z,31.77
2022-12-04T14:56:58.037Z,35.20
2022-12-04T14:59:26.635Z,31.92
2022-12-04T15:01:55.413Z,35.03
2022-12-04T15:04:31.143Z,33.63
2022-12-04T15:07:00.420Z,34.95
2022-12-04T15:09:46.733Z,33.63
2022-12-04T15:12:36.985Z,34.28
2022-12-04T15:15:12.746Z,27.70
2022-12-04T15:17:39.692Z,36.03
2022-12-04T15:20:09.941Z,36.90
2022-12-04T15:22:36.737Z,33.92
2022-12-04T15:25:03.799Z,38.80
2022-12-04T15:27:33.006Z,35.50
2022-12-04T15:30:00.702Z,33.97
2022-12-04T15:32:28.825Z,40.87
2022-12-04T15:35:00.328Z,34.67
2022-12-04T15:37:28.607Z,33.73
2022-12-04T15:39:56.488Z,32.67
2022-12-04T15:42:23.202Z,38.73
2022-12-04T15:44:51.363Z,32.37
2022-12-04T15:47:20.811Z,55.72
2022-12-04T15:49:47.385Z,39.23
2022-12-04T15:52:13.964Z,29.50
2022-12-04T15:54:45.541Z,27.33
2022-12-04T15:57:18.595Z,37.10
2022-12-04T15:59:49.565Z,31.77
2022-12-04T16:02:29.027Z,32.43
2022-12-04T16:04:55.733Z,37.65
2022-12-04T16:07:23.591Z,42.90
2022-12-04T16:10:01.035Z,37.97
2022-12-04T16:12:30.954Z,36.15
2022-12-04T16:14:57.926Z,37.60
2022-12-04T16:17:29.321Z,36.63
2022-12-04T16:19:56.479Z,36.47
2022-12-04T16:22:23.934Z,35.03
2022-12-04T16:24:51.062Z,34.73
2022-12-04T16:27:22.769Z,39.70
2022-12-04T16:29:50.067Z,34.77
2022-12-04T16:32:17.855Z,38.03
2022-12-04T16:34:44.675Z,36.63
2022-12-04T16:37:16.227Z,35.30
2022-12-04T16:39:42.834Z,37.17
2022-12-04T16:42:15.841Z,37.25
2022-12-04T16:44:43.025Z,41.37
2022-12-04T16:47:11.261Z,36.53
2022-12-04T16:49:38.550Z,31.17
2022-12-04T16:52:05.489Z,37.40
2022-12-04T16:54:32.093Z,34.43
2022-12-04T16:56:58.831Z,39.87
2022-12-04T16:59:25.519Z,37.17
2022-12-04T17:01:52.836Z,40.07
2022-12-04T17:04:19.773Z,37.80
2022-12-04T17:06:46.470Z,39.13
2022-12-04T17:09:13.616Z,35.53
2022-12-04T17:11:40.599Z,38.73
2022-12-04T17:14:07.476Z,35.75
2022-12-04T17:16:38.682Z,31.57
2022-12-04T17:19:05.537Z,42.57
2022-12-04T17:21:32.271Z,43.63
2022-12-04T17:23:59.101Z,41.13
2022-12-04T17:26:26.047Z,37.00
2022-12-04T17:28:53.009Z,35.87
2022-12-04T17:31:24.434Z,31.10
2022-12-04T17:33:51.305Z,40.28
2022-12-04T17:36:19.344Z,39.40
2022-12-04T17:38:46.019Z,39.13
2022-12-04T17:41:14.061Z,37.70
2022-12-04T17:43:41.446Z,40.43
2022-12-04T17:46:09.360Z,46.78
2022-12-04T17:48:36.284Z,51.67
2022-12-04T17:51:13.242Z,47.72
2022-12-04T17:53:40.206Z,48.00
2022-12-04T17:56:08.665Z,48.00
2022-12-04T17:58:35.816Z,47.07
2022-12-04T18:01:03.862Z,45.43
2022-12-04T18:03:30.564Z,48.57
2022-12-04T18:05:57.345Z,47.67
2022-12-04T18:08:24.135Z,60.10
2022-12-04T18:10:50.682Z,55.20
2022-12-04T18:13:17.302Z,53.57
2022-12-04T18:15:43.920Z,67.07
2022-12-04T18:18:10.473Z,55.70
2022-12-04T18:20:37.310Z,61.53
2022-12-04T18:23:03.957Z,70.22
2022-12-04T18:25:30.614Z,52.30
2022-12-04T18:27:58.431Z,70.10
2022-12-04T18:30:25.205Z,64.53
2022-12-04T18:32:54.071Z,60.37
2022-12-04T18:35:20.808Z,77.53
2022-12-04T18:37:47.513Z,58.30
2022-12-04T18:40:14.862Z,55.40
2022-12-04T18:42:41.680Z,68.47
2022-12-04T18:45:08.684Z,61.37
2022-12-04T18:47:36.464Z,55.27
2022-12-04T18:50:02.995Z,56.63
2022-12-04T18:52:29.612Z,53.17
2022-12-04T18:54:56.126Z,62.10
2022-12-04T18:57:22.754Z,60.13
2022-12-04T18:59:49.338Z,69.67
2022-12-04T19:02:15.856Z,54.50
2022-12-04T19:04:42.494Z,51.73
2022-12-04T19:07:09.135Z,50.37
2022-12-04T19:10:09.373Z,57.57
2022-12-04T19:12:22.241Z,56.33
2022-12-04T19:14:48.809Z,49.03
2022-12-04T19:17:15.891Z,56.67
2022-12-04T19:19:42.419Z,57.80
2022-12-04T19:22:09.257Z,53.80
2022-12-04T19:24:35.757Z,58.40
2022-12-04T19:27:09.910Z,57.77
2022-12-04T19:29:37.390Z,48.93
2022-12-04T19:32:03.997Z,52.53
2022-12-04T19:34:30.590Z,52.43
2022-12-04T19:36:57.322Z,47.87
2022-12-04T19:39:23.966Z,54.77
2022-12-04T19:41:50.510Z,51.67
2022-12-04T19:44:47.294Z,54.57
2022-12-04T19:47:03.602Z,46.70
2022-12-04T19:49:30.151Z,51.60
2022-12-04T19:51:56.789Z,56.33
2022-12-04T19:54:23.828Z,54.70
2022-12-04T19:56:51.326Z,50.10
2022-12-04T19:59:18.614Z,56.67
2022-12-04T20:01:45.416Z,53.13
2022-12-04T20:04:12.230Z,51.73
2022-12-04T20:06:47.649Z,51.07
2022-12-04T20:09:17.736Z,46.80
2022-12-04T20:11:44.236Z,59.10
2022-12-04T20:14:10.830Z,54.13
2022-12-04T20:16:37.972Z,53.17
2022-12-04T20:19:06.671Z,49.90
2022-12-04T20:21:33.739Z,51.90
2022-12-04T20:24:01.714Z,59.10
2022-12-04T20:26:30.444Z,53.77
2022-12-04T20:28:58.287Z,62.73
2022-12-04T20:31:26.470Z,48.43
2022-12-04T20:33:54.096Z,55.57
2022-12-04T20:36:21.945Z,53.17
2022-12-04T20:38:49.262Z,49.37
2022-12-04T20:41:16.227Z,49.53
2022-12-04T20:43:43.596Z,50.10
2022-12-04T20:46:31.440Z,48.70
2022-12-04T20:48:59.108Z,53.07
2022-12-04T20:51:26.876Z,56.63
2022-12-04T20:53:54.338Z,50.57
2022-12-04T20:56:25.934Z,55.20
2022-12-04T20:58:53.087Z,54.77
2022-12-04T21:01:20.095Z,51.30
2022-12-04T21:03:47.111Z,50.53
2022-12-04T21:06:27.296Z,54.53
2022-12-04T21:08:57.111Z,50.23
2022-12-04T21:11:27.399Z,51.97
2022-12-04T21:14:13.213Z,49.97
2022-12-04T21:16:40.235Z,58.60
2022-12-04T21:19:07.370Z,50.93
2022-12-04T21:21:35.956Z,62.07
2022-12-04T21:24:03.442Z,49.40
2022-12-04T21:26:31.446Z,60.77
2022-12-04T21:28:58.365Z,54.93
2022-12-04T21:31:27.054Z,56.07
2022-12-04T21:33:53.701Z,49.75
2022-12-04T21:36:20.318Z,54.55
2022-12-04T21:38:46.892Z,52.30
2022-12-04T21:41:33.469Z,58.03
2022-12-04T21:44:00.109Z,63.70
2022-12-04T21:46:26.718Z,54.55
2022-12-04T21:48:53.335Z,60.07
2022-12-04T21:51:40.253Z,58.70
2022-12-04T21:54:06.855Z,70.72
2022-12-04T21:56:34.060Z,71.50
2022-12-04T21:59:00.833Z,75.45
2022-12-04T22:01:27.728Z,67.27
2022-12-04T22:03:55.848Z,82.00
2022-12-04T22:06:22.943Z,71.72
2022-12-04T22:08:50.083Z,80.35
2022-12-04T22:11:17.310Z,73.05
2022-12-04T22:13:44.973Z,81.13
2022-12-04T22:16:12.832Z,75.57
2022-12-04T22:18:39.937Z,75.68
2022-12-04T22:21:07.760Z,81.13
2022-12-04T22:23:35.034Z,76.90
2022-12-04T22:26:19.823Z,84.28
2022-12-04T22:28:46.605Z,83.45
2022-12-04T22:31:14.966Z,77.88
2022-12-04T22:33:44.686Z,79.15
2022-12-04T22:36:12.512Z,87.68
2022-12-04T22:38:58.661Z,89.78
2022-12-04T22:41:25.875Z,84.00
2022-12-04T22:43:53.676Z,85.47
2022-12-04T22:46:20.877Z,98.85
2022-12-04T22:48:47.580Z,80.88
2022-12-04T22:51:15.677Z,108.63
2022-12-04T22:53:46.914Z,95.88
2022-12-04T22:56:13.574Z,94.32
2022-12-04T22:58:40.275Z,82.00
2022-12-04T23:01:14.559Z,100.38
2022-12-04T23:03:41.504Z,96.10
2022-12-04T23:06:08.878Z,96.10
2022-12-04T23:08:39.833Z,91.33
2022-12-04T23:11:07.480Z,105.13
2022-12-04T23:13:34.386Z,89.35
2022-12-04T23:16:06.257Z,105.07
2022-12-04T23:18:35.768Z,101.50
2022-12-04T23:21:09.727Z,102.22
2022-12-04T23:23:37.498Z,104.13
2022-12-04T23:26:05.273Z,103.88
2022-12-04T23:28:32.288Z,95.70
2022-12-04T23:30:59.390Z,101.95
2022-12-04T23:33:26.290Z,93.85
2022-12-04T23:35:53.715Z,107.70
2022-12-04T23:38:20.598Z,86.63
2022-12-04T23:40:47.381Z,86.97
2022-12-04T23:43:15.608Z,90.00
2022-12-04T23:45:42.678Z,99.75
2022-12-04T23:48:09.518Z,98.72
2022-12-04T23:50:36.359Z,90.25
2022-12-04T23:53:02.910Z,99.53
2022-12-04T23:55:34.025Z,106.57
2022-12-04T23:58:02.000Z,112.35
